Time;durP1;ratioP1;P1;durP2;ratioP2;P2;SDS_P1;SDS_P2;PMS_P1;PMS_P2;Temp;Humidity;BMP_temperature;BMP_pressure;BME280_temperature;BME280_humidity;BME280_pressure;Samples;Min_cycle;Max_cycle;Signal;HPM_P1;HPM_P2
2022/03/07 00:01:37;;;;;;;12.23;10.35;;;;;;;;;;4966524;28;20319;-72
2022/03/07 00:04:05;;;;;;;13.07;10.43;;;;;;;;;;4985181;28;20054;-72
2022/03/07 00:06:33;;;;;;;12.73;10.88;;;;;;;;;;4974270;28;20492;-72
2022/03/07 00:09:00;;;;;;;11.23;9.25;;;;;;;;;;4992624;28;20034;-74
2022/03/07 00:11:28;;;;;;;13.73;10.82;;;;;;;;;;4994801;28;20129;-72
2022/03/07 00:13:56;;;;;;;11.05;9.80;;;;;;;;;;4992005;28;20042;-71
2022/03/07 00:16:23;;;;;;;12.27;10.38;;;;;;;;;;4992355;28;20073;-73
2022/03/07 00:18:51;;;;;;;11.50;9.70;;;;;;;;;;4991972;28;20037;-72
2022/03/07 00:21:20;;;;;;;14.48;9.90;;;;;;;;;;4987980;28;20219;-71
2022/03/07 00:23:48;;;;;;;10.93;9.70;;;;;;;;;;4987731;28;20570;-72
2022/03/07 00:26:15;;;;;;;12.43;9.98;;;;;;;;;;4970760;28;20116;-73
2022/03/07 00:28:43;;;;;;;12.40;10.45;;;;;;;;;;5009804;28;20507;-73
2022/03/07 00:31:11;;;;;;;12.77;11.38;;;;;;;;;;4976548;28;20108;-72
2022/03/07 00:33:41;;;;;;;12.82;10.52;;;;;;;;;;4997945;28;20061;-71
2022/03/07 00:36:09;;;;;;;14.90;11.82;;;;;;;;;;4981440;28;20045;-72
2022/03/07 00:38:36;;;;;;;11.63;10.43;;;;;;;;;;4969521;28;20053;-71
2022/03/07 00:41:08;;;;;;;13.15;11.73;;;;;;;;;;4993443;28;20735;-72
2022/03/07 00:43:35;;;;;;;17.55;13.10;;;;;;;;;;5002183;28;20038;-73
2022/03/07 00:46:04;;;;;;;19.23;13.18;;;;;;;;;;4999162;28;20042;-71
2022/03/07 00:48:31;;;;;;;19.23;13.48;;;;;;;;;;4990788;28;20038;-72
2022/03/07 00:50:59;;;;;;;25.95;14.10;;;;;;;;;;4993556;28;20125;-70
2022/03/07 00:53:27;;;;;;;24.58;15.13;;;;;;;;;;4974485;28;20053;-70
2022/03/07 00:55:55;;;;;;;16.45;12.48;;;;;;;;;;5008373;28;20289;-72
2022/03/07 00:58:28;;;;;;;19.52;12.75;;;;;;;;;;4958663;28;20098;-72
2022/03/07 01:00:55;;;;;;;28.50;14.90;;;;;;;;;;4995622;28;20065;-71
2022/03/07 01:03:23;;;;;;;20.10;13.23;;;;;;;;;;5006184;28;20046;-73
2022/03/07 01:05:51;;;;;;;17.38;12.70;;;;;;;;;;4988877;28;20133;-72
2022/03/07 01:08:20;;;;;;;16.02;11.95;;;;;;;;;;5006752;28;20089;-71
2022/03/07 01:10:47;;;;;;;18.00;12.98;;;;;;;;;;5010242;28;20038;-74
2022/03/07 01:13:18;;;;;;;21.20;14.10;;;;;;;;;;4992910;28;20109;-73
2022/03/07 01:15:46;;;;;;;21.27;16.40;;;;;;;;;;5009086;28;20048;-73
2022/03/07 01:18:14;;;;;;;19.38;14.68;;;;;;;;;;4973751;28;20054;-72
2022/03/07 01:20:41;;;;;;;21.45;15.38;;;;;;;;;;4995528;28;20038;-73
2022/03/07 01:23:08;;;;;;;19.10;14.88;;;;;;;;;;5011989;28;20140;-71
2022/03/07 01:25:36;;;;;;;18.67;14.48;;;;;;;;;;5005837;28;20392;-71
2022/03/07 01:28:04;;;;;;;15.77;13.00;;;;;;;;;;5004750;28;20097;-73
2022/03/07 01:30:31;;;;;;;15.00;11.95;;;;;;;;;;5008908;28;20101;-73
2022/03/07 01:32:59;;;;;;;13.65;12.27;;;;;;;;;;5009816;28;20408;-71
2022/03/07 01:35:26;;;;;;;14.68;11.25;;;;;;;;;;4976059;28;20290;-73
2022/03/07 01:37:54;;;;;;;13.20;11.45;;;;;;;;;;5008911;28;20076;-73
2022/03/07 01:40:24;;;;;;;13.88;12.48;;;;;;;;;;5009878;28;20052;-72
2022/03/07 01:42:51;;;;;;;12.93;11.00;;;;;;;;;;5014850;28;20038;-71
2022/03/07 01:45:20;;;;;;;13.18;11.82;;;;;;;;;;5010884;28;20048;-71
2022/03/07 01:47:48;;;;;;;14.68;11.82;;;;;;;;;;5013113;28;20511;-72
2022/03/07 01:50:17;;;;;;;13.57;11.45;;;;;;;;;;5024857;28;20040;-71
2022/03/07 01:52:47;;;;;;;11.80;10.60;;;;;;;;;;4991866;28;20042;-73
2022/03/07 01:55:16;;;;;;;13.15;10.75;;;;;;;;;;4991490;28;20125;-71
2022/03/07 01:57:52;;;;;;;12.70;11.40;;;;;;;;;;5005644;28;20430;-70
2022/03/07 02:00:21;;;;;;;12.63;10.70;;;;;;;;;;4993191;28;20053;-73
2022/03/07 02:02:48;;;;;;;12.80;11.00;;;;;;;;;;5006359;28;20507;-71
2022/03/07 02:05:22;;;;;;;13.50;10.90;;;;;;;;;;5022367;28;20041;-73
2022/03/07 02:07:57;;;;;;;14.27;11.23;;;;;;;;;;5029666;28;20044;-72
2022/03/07 02:10:28;;;;;;;12.65;10.73;;;;;;;;;;5012368;28;20088;-71
2022/03/07 02:12:58;;;;;;;13.88;11.55;;;;;;;;;;5020221;28;20042;-73
2022/03/07 02:15:26;;;;;;;15.80;12.63;;;;;;;;;;5011119;28;20053;-72
2022/03/07 02:17:56;;;;;;;13.10;11.70;;;;;;;;;;5008400;28;20093;-71
2022/03/07 02:20:24;;;;;;;15.65;11.90;;;;;;;;;;4991995;28;20121;-70
2022/03/07 02:22:51;;;;;;;14.00;11.73;;;;;;;;;;5010339;28;20057;-72
2022/03/07 02:25:19;;;;;;;13.70;11.15;;;;;;;;;;4991024;28;20042;-73
2022/03/07 02:27:49;;;;;;;13.93;12.43;;;;;;;;;;4992019;28;20065;-73
2022/03/07 02:30:16;;;;;;;12.30;11.02;;;;;;;;;;4991922;28;20050;-71
2022/03/07 02:32:44;;;;;;;16.25;11.95;;;;;;;;;;4989325;28;20053;-73
2022/03/07 02:35:12;;;;;;;14.77;11.73;;;;;;;;;;4990002;28;20093;-73
2022/03/07 02:37:42;;;;;;;11.55;10.10;;;;;;;;;;5023318;28;20052;-75
2022/03/07 02:40:12;;;;;;;12.60;11.15;;;;;;;;;;5008310;28;20330;-71
2022/03/07 02:43:00;;;;;;;16.48;13.45;;;;;;;;;;4994149;28;20057;-72
2022/03/07 02:45:28;;;;;;;11.90;10.07;;;;;;;;;;4990484;28;20045;-73
2022/03/07 02:47:56;;;;;;;15.52;11.73;;;;;;;;;;5007479;28;20038;-73
2022/03/07 02:50:24;;;;;;;17.25;13.45;;;;;;;;;;4989160;28;20052;-70
2022/03/07 02:52:51;;;;;;;15.95;12.48;;;;;;;;;;5007383;28;20109;-73
2022/03/07 02:55:19;;;;;;;14.90;11.63;;;;;;;;;;4990090;28;20058;-73
2022/03/07 02:57:46;;;;;;;14.13;12.32;;;;;;;;;;5008585;28;20101;-72
2022/03/07 03:00:14;;;;;;;14.25;12.30;;;;;;;;;;5008558;28;20515;-70
2022/03/07 03:02:41;;;;;;;15.68;12.68;;;;;;;;;;5008633;28;20042;-72
2022/03/07 03:05:09;;;;;;;11.38;9.23;;;;;;;;;;4988308;28;20097;-72
2022/03/07 03:07:36;;;;;;;17.27;13.05;;;;;;;;;;5007862;28;20553;-71
2022/03/07 03:10:05;;;;;;;16.52;13.20;;;;;;;;;;4990368;28;20503;-73
2022/03/07 03:12:32;;;;;;;15.02;11.85;;;;;;;;;;5007944;28;20613;-72
2022/03/07 03:14:59;;;;;;;16.02;12.38;;;;;;;;;;5007174;28;20093;-72
2022/03/07 03:17:27;;;;;;;13.98;11.52;;;;;;;;;;5025630;23;20049;-71
2022/03/07 03:19:54;;;;;;;16.83;14.10;;;;;;;;;;5038655;28;20048;-70
2022/03/07 03:22:22;;;;;;;16.90;13.60;;;;;;;;;;5060949;28;20063;-70
2022/03/07 03:24:49;;;;;;;13.95;10.48;;;;;;;;;;5035955;28;20433;-70
2022/03/07 03:27:17;;;;;;;16.83;14.70;;;;;;;;;;5027968;28;20072;-70
2022/03/07 03:29:44;;;;;;;17.02;14.65;;;;;;;;;;5028476;28;20079;-70
2022/03/07 03:32:12;;;;;;;18.75;14.82;;;;;;;;;;5014529;28;20156;-71
2022/03/07 03:34:39;;;;;;;17.85;15.95;;;;;;;;;;5027781;28;20483;-71
2022/03/07 03:37:06;;;;;;;15.70;13.40;;;;;;;;;;5028813;28;20045;-70
2022/03/07 03:39:34;;;;;;;16.10;12.65;;;;;;;;;;5032326;28;20071;-70
2022/03/07 03:42:01;;;;;;;15.80;13.40;;;;;;;;;;5027982;28;20263;-73
2022/03/07 03:44:29;;;;;;;19.60;16.50;;;;;;;;;;5029875;28;20103;-71
2022/03/07 03:46:56;;;;;;;16.08;13.05;;;;;;;;;;5020115;28;20388;-71
2022/03/07 03:49:24;;;;;;;20.15;16.27;;;;;;;;;;5026243;28;20135;-71
2022/03/07 03:51:51;;;;;;;21.88;16.85;;;;;;;;;;5007036;28;20479;-70
2022/03/07 03:54:19;;;;;;;17.40;14.50;;;;;;;;;;5028540;28;20037;-71
2022/03/07 03:56:46;;;;;;;17.25;13.73;;;;;;;;;;5009800;28;20067;-71
2022/03/07 03:59:14;;;;;;;19.60;16.60;;;;;;;;;;5017237;28;20060;-70
2022/03/07 04:01:45;;;;;;;20.90;17.00;;;;;;;;;;5028992;28;20126;-71
2022/03/07 04:04:13;;;;;;;19.87;15.20;;;;;;;;;;5012220;28;20044;-71
2022/03/07 04:06:41;;;;;;;21.52;17.25;;;;;;;;;;5023968;28;20406;-70
2022/03/07 04:09:10;;;;;;;13.48;10.32;;;;;;;;;;5013600;28;20076;-69
2022/03/07 04:11:38;;;;;;;20.70;16.38;;;;;;;;;;5035582;28;20577;-71
2022/03/07 04:14:05;;;;;;;16.88;14.43;;;;;;;;;;5031889;28;20068;-70
2022/03/07 04:16:34;;;;;;;16.73;12.48;;;;;;;;;;5033344;28;20536;-70
2022/03/07 04:19:01;;;;;;;26.80;16.83;;;;;;;;;;5024376;28;20049;-73
2022/03/07 04:21:29;;;;;;;19.70;14.63;;;;;;;;;;5013348;28;20131;-71
2022/03/07 04:23:56;;;;;;;20.92;15.82;;;;;;;;;;5022876;28;20049;-71
2022/03/07 04:26:27;;;;;;;18.33;14.43;;;;;;;;;;5026118;28;20038;-71
2022/03/07 04:28:54;;;;;;;18.95;15.35;;;;;;;;;;5034431;28;20124;-71
2022/03/07 04:31:22;;;;;;;28.48;15.63;;;;;;;;;;5039373;28;20053;-71
2022/03/07 04:33:50;;;;;;;24.90;16.52;;;;;;;;;;5037563;28;20083;-70
2022/03/07 04:36:19;;;;;;;34.63;16.67;;;;;;;;;;5033270;28;20048;-71
2022/03/07 04:38:47;;;;;;;20.13;17.02;;;;;;;;;;5035458;28;20608;-70
2022/03/07 04:41:14;;;;;;;16.33;14.63;;;;;;;;;;5036948;28;20091;-71
2022/03/07 04:43:42;;;;;;;22.02;17.55;;;;;;;;;;5033057;28;20502;-71
2022/03/07 04:46:10;;;;;;;18.15;14.43;;;;;;;;;;5049774;28;20127;-70
2022/03/07 04:48:38;;;;;;;21.45;17.40;;;;;;;;;;5050069;28;20516;-71
2022/03/07 04:51:05;;;;;;;17.15;14.95;;;;;;;;;;5051788;28;20063;-70
2022/03/07 04:53:32;;;;;;;16.40;13.23;;;;;;;;;;5049386;28;20812;-71
2022/03/07 04:56:00;;;;;;;16.35;14.30;;;;;;;;;;5061618;28;20056;-70
2022/03/07 04:58:27;;;;;;;19.02;15.60;;;;;;;;;;5060311;28;20033;-70
2022/03/07 05:00:55;;;;;;;17.83;15.30;;;;;;;;;;5071051;28;20021;-70
2022/03/07 05:03:22;;;;;;;22.45;16.80;;;;;;;;;;5037635;28;20061;-71
2022/03/07 05:05:50;;;;;;;19.17;15.82;;;;;;;;;;5036744;28;20053;-71
2022/03/07 05:08:18;;;;;;;18.90;15.43;;;;;;;;;;5041516;28;20061;-71
2022/03/07 05:10:45;;;;;;;21.48;16.60;;;;;;;;;;5041433;28;20120;-71
2022/03/07 05:13:12;;;;;;;17.75;15.50;;;;;;;;;;5029816;28;20049;-71
2022/03/07 05:15:41;;;;;;;20.02;16.65;;;;;;;;;;5029708;28;20037;-71
2022/03/07 05:18:08;;;;;;;19.00;15.38;;;;;;;;;;5017119;28;20127;-72
2022/03/07 05:20:36;;;;;;;19.77;15.57;;;;;;;;;;5010621;28;20497;-71
2022/03/07 05:23:23;;;;;;;16.20;12.68;;;;;;;;;;5033528;28;20406;-71
2022/03/07 05:25:51;;;;;;;18.58;14.55;;;;;;;;;;5027697;28;20053;-71
2022/03/07 05:28:18;;;;;;;19.45;16.00;;;;;;;;;;5028845;28;20068;-71
2022/03/07 05:30:45;;;;;;;20.50;16.63;;;;;;;;;;5030049;28;20443;-71
2022/03/07 05:33:13;;;;;;;18.17;14.55;;;;;;;;;;5021162;28;20041;-71
2022/03/07 05:35:40;;;;;;;10.02;8.90;;;;;;;;;;5030105;28;20410;-72
2022/03/07 05:38:08;;;;;;;20.30;15.80;;;;;;;;;;5040219;28;20041;-72
2022/03/07 05:40:35;;;;;;;20.17;16.67;;;;;;;;;;5041417;28;20037;-71
2022/03/07 05:43:03;;;;;;;18.67;15.48;;;;;;;;;;5032992;28;20033;-72
2022/03/07 05:45:30;;;;;;;22.60;15.73;;;;;;;;;;5038399;28;20413;-72
2022/03/07 05:47:58;;;;;;;18.83;13.18;;;;;;;;;;5034116;28;20128;-71
2022/03/07 05:50:25;;;;;;;20.48;16.30;;;;;;;;;;5032715;28;20042;-71
2022/03/07 05:52:52;;;;;;;29.33;18.05;;;;;;;;;;5024173;28;20041;-70
2022/03/07 05:55:25;;;;;;;19.58;16.35;;;;;;;;;;5026117;28;20029;-71
2022/03/07 05:57:59;;;;;;;21.48;15.98;;;;;;;;;;5032552;28;20041;-70
2022/03/07 06:00:27;;;;;;;18.75;15.32;;;;;;;;;;5033184;28;20033;-69
2022/03/07 06:02:55;;;;;;;19.45;14.30;;;;;;;;;;5032894;28;20135;-70
2022/03/07 06:05:23;;;;;;;21.50;16.55;;;;;;;;;;5035109;28;20034;-70
2022/03/07 06:07:50;;;;;;;16.13;12.63;;;;;;;;;;5037656;28;20048;-70
2022/03/07 06:10:18;;;;;;;22.05;16.02;;;;;;;;;;5003854;28;20038;-70
2022/03/07 06:12:45;;;;;;;21.02;16.05;;;;;;;;;;5031258;28;20463;-70
2022/03/07 06:15:18;;;;;;;20.17;15.18;;;;;;;;;;5016003;28;20116;-70
2022/03/07 06:17:52;;;;;;;18.55;14.55;;;;;;;;;;5041948;28;20061;-70
2022/03/07 06:20:20;;;;;;;18.48;16.08;;;;;;;;;;5032430;28;20076;-71
2022/03/07 06:22:48;;;;;;;19.88;15.38;;;;;;;;;;5039148;28;20502;-70
2022/03/07 06:25:16;;;;;;;23.67;16.98;;;;;;;;;;5041757;28;20084;-71
2022/03/07 06:27:44;;;;;;;18.65;14.50;;;;;;;;;;5037507;28;20196;-70
2022/03/07 06:30:11;;;;;;;21.38;15.85;;;;;;;;;;5044276;28;20029;-70
2022/03/07 06:32:39;;;;;;;19.85;15.93;;;;;;;;;;5037452;28;20132;-71
2022/03/07 06:35:12;;;;;;;19.00;15.50;;;;;;;;;;5023016;28;20048;-71
2022/03/07 06:37:45;;;;;;;23.35;15.18;;;;;;;;;;5031978;28;21056;-71
2022/03/07 06:40:13;;;;;;;37.00;15.38;;;;;;;;;;5037335;28;20136;-71
2022/03/07 06:42:41;;;;;;;24.20;15.93;;;;;;;;;;5037650;28;20068;-71
2022/03/07 06:45:09;;;;;;;28.73;17.17;;;;;;;;;;5038252;28;20076;-70
2022/03/07 06:47:36;;;;;;;22.23;14.63;;;;;;;;;;5037381;28;20041;-70
2022/03/07 06:50:04;;;;;;;21.48;16.60;;;;;;;;;;5028557;28;20095;-70
2022/03/07 06:52:32;;;;;;;20.30;16.15;;;;;;;;;;5043533;28;20117;-70
2022/03/07 06:54:59;;;;;;;18.08;14.57;;;;;;;;;;5045699;28;20127;-70
2022/03/07 06:57:27;;;;;;;19.33;15.55;;;;;;;;;;5043066;28;20152;-71
2022/03/07 06:59:54;;;;;;;18.60;14.23;;;;;;;;;;5040220;28;20132;-71
2022/03/07 07:02:21;;;;;;;19.25;15.80;;;;;;;;;;5035892;28;20438;-71
2022/03/07 07:04:49;;;;;;;19.23;14.55;;;;;;;;;;5038327;28;20043;-71
2022/03/07 07:07:17;;;;;;;17.17;14.77;;;;;;;;;;5045840;28;20454;-72
2022/03/07 07:09:44;;;;;;;17.13;14.85;;;;;;;;;;5042309;28;20727;-71
2022/03/07 07:12:12;;;;;;;16.42;14.07;;;;;;;;;;5036158;28;20108;-70
2022/03/07 07:14:39;;;;;;;17.50;14.38;;;;;;;;;;5036113;28;20046;-71
2022/03/07 07:17:06;;;;;;;17.77;14.75;;;;;;;;;;5035011;28;20053;-71
2022/03/07 07:19:34;;;;;;;18.98;15.15;;;;;;;;;;5040617;28;20495;-72
2022/03/07 07:22:01;;;;;;;18.52;14.35;;;;;;;;;;5046517;28;20053;-70
2022/03/07 07:24:28;;;;;;;16.67;14.88;;;;;;;;;;5045155;28;20082;-71
2022/03/07 07:26:56;;;;;;;17.02;14.65;;;;;;;;;;5037111;28;20059;-71
2022/03/07 07:29:23;;;;;;;20.98;14.65;;;;;;;;;;5030471;28;20132;-71
2022/03/07 07:31:53;;;;;;;18.33;13.73;;;;;;;;;;5032868;28;20037;-71
2022/03/07 07:34:21;;;;;;;16.70;13.00;;;;;;;;;;5039697;28;20128;-72
2022/03/07 07:36:49;;;;;;;16.10;13.30;;;;;;;;;;5037163;28;20186;-73
2022/03/07 07:39:17;;;;;;;12.63;11.10;;;;;;;;;;5044495;28;20397;-72
2022/03/07 07:41:45;;;;;;;13.45;11.63;;;;;;;;;;5047528;28;20048;-72
2022/03/07 07:44:12;;;;;;;16.38;13.70;;;;;;;;;;5018030;28;20052;-72
2022/03/07 07:46:40;;;;;;;12.90;11.32;;;;;;;;;;5043935;28;20040;-71
2022/03/07 07:49:08;;;;;;;9.48;7.47;;;;;;;;;;5034479;28;20079;-73
2022/03/07 07:51:36;;;;;;;13.02;11.13;;;;;;;;;;5029659;28;20072;-72
2022/03/07 07:54:03;;;;;;;10.85;9.38;;;;;;;;;;5014257;28;20069;-74
2022/03/07 07:56:30;;;;;;;14.95;10.57;;;;;;;;;;5057842;28;20028;-72
2022/03/07 07:58:58;;;;;;;12.52;8.73;;;;;;;;;;5050374;28;20045;-73
2022/03/07 08:01:26;;;;;;;30.95;11.57;;;;;;;;;;5022614;28;20466;-73
2022/03/07 08:03:54;;;;;;;16.40;11.02;;;;;;;;;;5026104;28;20140;-73
2022/03/07 08:06:21;;;;;;;13.68;10.60;;;;;;;;;;5050563;28;20044;-73
2022/03/07 08:08:48;;;;;;;14.98;10.10;;;;;;;;;;5051939;28;20095;-72
2022/03/07 08:11:16;;;;;;;10.15;7.45;;;;;;;;;;5034253;28;20052;-72
2022/03/07 08:13:43;;;;;;;9.57;6.82;;;;;;;;;;5034276;28;20193;-73
2022/03/07 08:16:10;;;;;;;9.70;8.48;;;;;;;;;;5049248;28;20533;-73
2022/03/07 08:18:38;;;;;;;11.00;9.23;;;;;;;;;;5035013;28;20044;-72
2022/03/07 08:21:05;;;;;;;11.88;9.07;;;;;;;;;;5045496;28;20684;-72
2022/03/07 08:23:33;;;;;;;12.50;9.85;;;;;;;;;;5030794;28;20041;-72
2022/03/07 08:26:06;;;;;;;12.07;10.52;;;;;;;;;;5039715;28;20044;-72
2022/03/07 08:28:33;;;;;;;13.18;9.95;;;;;;;;;;5050647;28;20037;-73
2022/03/07 08:31:01;;;;;;;12.88;10.82;;;;;;;;;;5042735;28;20039;-72
2022/03/07 08:33:31;;;;;;;15.65;11.10;;;;;;;;;;5051022;28;20037;-73
2022/03/07 08:35:59;;;;;;;15.45;11.63;;;;;;;;;;5049509;28;20449;-72
2022/03/07 08:38:27;;;;;;;18.65;10.38;;;;;;;;;;5050146;28;20040;-73
2022/03/07 08:40:55;;;;;;;13.25;10.13;;;;;;;;;;5049368;28;20049;-72
2022/03/07 08:43:22;;;;;;;10.70;9.63;;;;;;;;;;5030042;28;20621;-72
2022/03/07 08:45:50;;;;;;;11.05;9.80;;;;;;;;;;5031319;28;20095;-73
2022/03/07 08:48:23;;;;;;;11.60;9.65;;;;;;;;;;5046830;28;20045;-72
2022/03/07 08:50:53;;;;;;;13.45;8.90;;;;;;;;;;5050983;28;20041;-72
2022/03/07 08:53:21;;;;;;;13.38;11.68;;;;;;;;;;5032863;28;20044;-72
2022/03/07 08:55:48;;;;;;;15.45;10.82;;;;;;;;;;5050077;28;20034;-72
2022/03/07 08:58:36;;;;;;;11.43;8.48;;;;;;;;;;5050874;28;20045;-70
2022/03/07 09:01:03;;;;;;;10.57;7.63;;;;;;;;;;5051186;28;20725;-71
2022/03/07 09:03:31;;;;;;;12.38;10.40;;;;;;;;;;5049965;28;20044;-71
2022/03/07 09:05:59;;;;;;;13.13;9.82;;;;;;;;;;5030207;28;20607;-71
2022/03/07 09:08:26;;;;;;;12.38;9.98;;;;;;;;;;5030986;28;20095;-70
2022/03/07 09:10:53;;;;;;;12.45;8.45;;;;;;;;;;5012612;28;20136;-69
2022/03/07 09:13:21;;;;;;;11.55;9.82;;;;;;;;;;5033722;28;20392;-71
2022/03/07 09:15:49;;;;;;;8.63;7.63;;;;;;;;;;5066717;23;20033;-86
2022/03/07 09:18:16;;;;;;;12.30;10.02;;;;;;;;;;5065174;28;20052;-86
2022/03/07 09:20:44;;;;;;;8.13;7.32;;;;;;;;;;5045889;28;20032;-84
2022/03/07 09:23:11;;;;;;;11.35;8.90;;;;;;;;;;5031931;28;20064;-83
2022/03/07 09:25:38;;;;;;;9.98;8.98;;;;;;;;;;5045898;28;20036;-84
2022/03/07 09:28:06;;;;;;;9.07;7.82;;;;;;;;;;5063533;28;20048;-83
2022/03/07 09:30:33;;;;;;;10.20;8.65;;;;;;;;;;5064648;28;20069;-84
2022/03/07 09:33:03;;;;;;;7.28;6.40;;;;;;;;;;5064352;28;20074;-85
2022/03/07 09:35:32;;;;;;;10.43;9.00;;;;;;;;;;5047501;28;20295;-85
2022/03/07 09:38:00;;;;;;;7.70;6.15;;;;;;;;;;5047641;28;20044;-85
2022/03/07 09:40:27;;;;;;;7.85;6.85;;;;;;;;;;5061430;28;20048;-85
2022/03/07 09:42:54;;;;;;;11.15;8.63;;;;;;;;;;5046167;28;20037;-84
2022/03/07 09:45:22;;;;;;;9.25;7.25;;;;;;;;;;5064102;28;20658;-85
2022/03/07 09:47:50;;;;;;;11.13;8.40;;;;;;;;;;5044264;28;20571;-84
2022/03/07 09:50:18;;;;;;;7.75;6.30;;;;;;;;;;5060267;28;20197;-85
2022/03/07 09:52:46;;;;;;;10.30;7.75;;;;;;;;;;5028160;28;20049;-85
2022/03/07 09:55:16;;;;;;;9.55;8.43;;;;;;;;;;5045599;28;20426;-83
2022/03/07 09:57:44;;;;;;;9.23;8.23;;;;;;;;;;5049342;28;20044;-85
2022/03/07 10:00:12;;;;;;;10.32;8.50;;;;;;;;;;5063240;28;20052;-82
2022/03/07 10:02:39;;;;;;;7.90;6.68;;;;;;;;;;5046726;28;20107;-84
2022/03/07 10:05:07;;;;;;;10.18;8.95;;;;;;;;;;5047146;28;20063;-84
2022/03/07 10:07:45;;;;;;;9.02;7.72;;;;;;;;;;5062568;28;20104;-85
2022/03/07 10:10:13;;;;;;;12.63;9.77;;;;;;;;;;5061350;28;20342;-84
2022/03/07 10:12:44;;;;;;;10.20;8.95;;;;;;;;;;5026899;28;20040;-84
2022/03/07 10:15:13;;;;;;;13.98;9.63;;;;;;;;;;5047150;28;20322;-85
2022/03/07 10:17:41;;;;;;;9.90;8.90;;;;;;;;;;5047277;28;20051;-84
2022/03/07 10:20:09;;;;;;;13.77;9.25;;;;;;;;;;5065092;28;20049;-85
2022/03/07 10:22:43;;;;;;;9.68;7.68;;;;;;;;;;5044745;28;20416;-84
2022/03/07 10:25:11;;;;;;;11.27;9.80;;;;;;;;;;5060565;28;20040;-84
2022/03/07 10:27:44;;;;;;;11.80;9.10;;;;;;;;;;5067546;28;20040;-87
2022/03/07 10:30:25;;;;;;;8.50;7.45;;;;;;;;;;5056031;28;20408;-87
2022/03/07 10:32:56;;;;;;;11.80;9.38;;;;;;;;;;5040464;28;20139;-87
2022/03/07 10:35:37;;;;;;;11.05;9.48;;;;;;;;;;5040614;28;20051;-88
2022/03/07 10:38:09;;;;;;;10.55;8.10;;;;;;;;;;5047944;28;20072;-88
2022/03/07 10:40:42;;;;;;;10.40;8.63;;;;;;;;;;5058150;28;20048;-88
2022/03/07 10:43:12;;;;;;;8.20;6.57;;;;;;;;;;5040900;28;20052;-88
2022/03/07 10:46:00;;;;;;;10.07;9.00;;;;;;;;;;5040463;28;20048;-90
2022/03/07 10:48:28;;;;;;;11.15;9.45;;;;;;;;;;5039731;28;20526;-87
2022/03/07 10:50:58;;;;;;;14.70;9.23;;;;;;;;;;5040355;28;20052;-87
2022/03/07 10:53:30;;;;;;;11.48;10.32;;;;;;;;;;5040787;28;20071;-89
2022/03/07 10:56:01;;;;;;;9.80;7.10;;;;;;;;;;5021942;28;20052;-87
2022/03/07 10:58:28;;;;;;;10.32;9.23;;;;;;;;;;5041781;28;20048;-88
2022/03/07 11:01:00;;;;;;;11.32;7.93;;;;;;;;;;5039284;28;20422;-89
2022/03/07 11:03:37;;;;;;;10.90;9.80;;;;;;;;;;5040395;28;20060;-88
2022/03/07 11:06:09;;;;;;;12.43;9.73;;;;;;;;;;5053453;28;20052;-87
2022/03/07 11:08:37;;;;;;;12.25;10.85;;;;;;;;;;5034108;28;20041;-88
2022/03/07 11:11:05;;;;;;;12.40;9.85;;;;;;;;;;5022555;28;20511;-87
2022/03/07 11:13:34;;;;;;;12.20;8.85;;;;;;;;;;5039311;28;20048;-87
2022/03/07 11:16:04;;;;;;;12.25;9.40;;;;;;;;;;5039362;28;20056;-86
2022/03/07 11:18:32;;;;;;;10.93;9.43;;;;;;;;;;5046995;28;20119;-86
2022/03/07 11:21:04;;;;;;;11.68;8.85;;;;;;;;;;5023964;28;20044;-87
2022/03/07 11:23:32;;;;;;;15.73;9.75;;;;;;;;;;5043164;28;20075;-87
2022/03/07 11:26:00;;;;;;;10.82;9.23;;;;;;;;;;5036502;28;20045;-86
2022/03/07 11:28:29;;;;;;;10.77;9.68;;;;;;;;;;5054307;28;20037;-86
2022/03/07 11:30:57;;;;;;;11.52;9.90;;;;;;;;;;5030050;28;20041;-89
2022/03/07 11:33:37;;;;;;;11.00;9.75;;;;;;;;;;5023362;28;20135;-86
2022/03/07 11:36:06;;;;;;;10.60;7.95;;;;;;;;;;5015636;28;20072;-87
2022/03/07 11:38:37;;;;;;;8.60;7.70;;;;;;;;;;5061167;28;20493;-87
2022/03/07 11:41:14;;;;;;;10.13;8.95;;;;;;;;;;5045043;28;20052;-86
2022/03/07 11:43:52;;;;;;;6.70;6.07;;;;;;;;;;5048384;28;20043;-87
2022/03/07 11:46:21;;;;;;;6.80;5.45;;;;;;;;;;5027642;28;20075;-86
2022/03/07 11:49:32;;;;;;;8.15;5.85;;;;;;;;;;5062979;28;20535;-86
2022/03/07 11:52:25;;;;;;;9.13;6.47;;;;;;;;;;5029132;28;20538;-87
2022/03/07 11:55:01;;;;;;;6.25;5.65;;;;;;;;;;5044981;28;20041;-87
2022/03/07 11:57:45;;;;;;;7.72;5.90;;;;;;;;;;5035330;28;20084;-85
2022/03/07 12:00:18;;;;;;;7.28;5.30;;;;;;;;;;5044609;28;20123;-85
2022/03/07 12:02:48;;;;;;;5.88;4.43;;;;;;;;;;5046566;28;20067;-85
2022/03/07 12:05:31;;;;;;;8.23;6.38;;;;;;;;;;5044078;28;20071;-85
2022/03/07 12:08:15;;;;;;;6.90;6.20;;;;;;;;;;5070960;28;20045;-83
2022/03/07 12:10:52;;;;;;;6.25;5.65;;;;;;;;;;5028136;28;20052;-85
2022/03/07 12:13:27;;;;;;;6.93;5.63;;;;;;;;;;5025075;28;20072;-84
2022/03/07 12:16:03;;;;;;;6.03;5.43;;;;;;;;;;5043207;28;20033;-85
2022/03/07 12:18:30;;;;;;;6.93;6.10;;;;;;;;;;5056092;28;20511;-83
2022/03/07 12:21:02;;;;;;;4.93;3.95;;;;;;;;;;5062891;28;20053;-85
2022/03/07 12:23:31;;;;;;;6.57;5.97;;;;;;;;;;5051166;28;20488;-84
2022/03/07 12:26:03;;;;;;;8.15;7.43;;;;;;;;;;5051529;28;20057;-84
2022/03/07 12:28:35;;;;;;;7.55;5.57;;;;;;;;;;5055246;28;20063;-85
2022/03/07 12:31:03;;;;;;;8.05;6.85;;;;;;;;;;5054732;28;20059;-83
2022/03/07 12:33:31;;;;;;;8.38;7.28;;;;;;;;;;5034720;28;20037;-84
2022/03/07 12:36:23;;;;;;;5.20;4.68;;;;;;;;;;5047291;28;20082;-84
2022/03/07 12:38:52;;;;;;;8.88;7.80;;;;;;;;;;5045251;28;20091;-84
2022/03/07 12:41:21;;;;;;;8.55;7.53;;;;;;;;;;5045638;28;20458;-86
2022/03/07 12:44:11;;;;;;;8.32;7.50;;;;;;;;;;5045494;28;20052;-85
2022/03/07 12:46:47;;;;;;;6.90;5.75;;;;;;;;;;5084886;28;20047;-82
2022/03/07 12:49:19;;;;;;;5.53;4.95;;;;;;;;;;5041231;28;20092;-84
2022/03/07 12:51:52;;;;;;;8.45;5.53;;;;;;;;;;5065660;28;20025;-83
2022/03/07 12:54:28;;;;;;;6.32;5.68;;;;;;;;;;5088310;28;20059;-84
2022/03/07 12:56:55;;;;;;;6.68;5.82;;;;;;;;;;5076897;28;20024;-80
2022/03/07 12:59:27;;;;;;;7.20;6.30;;;;;;;;;;5068953;28;20054;-85
2022/03/07 13:01:55;;;;;;;7.45;5.78;;;;;;;;;;5066990;28;20043;-82
2022/03/07 13:04:27;;;;;;;7.90;5.13;;;;;;;;;;5085061;28;20040;-83
2022/03/07 13:06:56;;;;;;;6.65;5.95;;;;;;;;;;5083102;28;20051;-84
2022/03/07 13:09:28;;;;;;;7.75;6.15;;;;;;;;;;5053335;28;20040;-84
2022/03/07 13:11:56;;;;;;;9.75;6.85;;;;;;;;;;5060903;28;20488;-84
2022/03/07 13:14:24;;;;;;;6.18;5.57;;;;;;;;;;5044659;28;20076;-85
2022/03/07 13:16:52;;;;;;;6.40;4.82;;;;;;;;;;5055912;28;20076;-83
2022/03/07 13:19:21;;;;;;;7.45;6.28;;;;;;;;;;5062620;28;20580;-84
2022/03/07 13:21:49;;;;;;;5.72;5.22;;;;;;;;;;5062189;28;20055;-84
2022/03/07 13:24:21;;;;;;;7.03;5.65;;;;;;;;;;5043907;28;20407;-85
2022/03/07 13:26:59;;;;;;;12.43;11.20;;;;;;;;;;5059352;28;20068;-85
2022/03/07 13:29:26;;;;;;;7.05;6.45;;;;;;;;;;5041305;28;20061;-84
2022/03/07 13:32:01;;;;;;;6.88;5.50;;;;;;;;;;5044592;28;20494;-85
2022/03/07 13:34:44;;;;;;;6.93;5.45;;;;;;;;;;5046343;28;20037;-86
2022/03/07 13:37:13;;;;;;;7.57;6.07;;;;;;;;;;5023034;28;21388;-85
2022/03/07 13:39:41;;;;;;;6.35;5.75;;;;;;;;;;5050982;28;20072;-86
2022/03/07 13:42:13;;;;;;;10.63;6.85;;;;;;;;;;5031789;28;20059;-84
2022/03/07 13:45:06;;;;;;;8.52;7.35;;;;;;;;;;5060408;28;20075;-86
2022/03/07 13:47:33;;;;;;;6.20;5.65;;;;;;;;;;5026949;28;20137;-70
2022/03/07 13:50:03;;;;;;;7.50;6.18;;;;;;;;;;5003000;28;20489;-72
2022/03/07 13:52:38;;;;;;;9.65;7.30;;;;;;;;;;5033346;28;20142;-71
2022/03/07 13:55:08;;;;;;;6.60;5.90;;;;;;;;;;5027085;28;20045;-73
2022/03/07 13:57:36;;;;;;;6.82;6.15;;;;;;;;;;5019155;28;20041;-72
2022/03/07 14:00:08;;;;;;;8.10;6.90;;;;;;;;;;5002655;28;20163;-73
2022/03/07 14:02:43;;;;;;;7.35;6.65;;;;;;;;;;5004337;28;20096;-73
2022/03/07 14:05:11;;;;;;;;;;;;;;;;;;4998963;28;20041;-71
2022/03/07 14:07:41;;;;;;;7.15;5.70;;;;;;;;;;5021044;28;20205;-72
2022/03/07 14:10:15;;;;;;;8.70;7.03;;;;;;;;;;5021318;28;20060;-72
2022/03/07 14:12:49;;;;;;;7.65;6.43;;;;;;;;;;5019588;28;20606;-72
2022/03/07 14:15:26;;;;;;;7.40;6.10;;;;;;;;;;5013156;28;20038;-70
2022/03/07 14:17:57;;;;;;;6.85;5.47;;;;;;;;;;5021671;28;20072;-72
2022/03/07 14:20:25;;;;;;;7.70;6.37;;;;;;;;;;5001381;28;20507;-72
2022/03/07 14:22:52;;;;;;;7.60;6.65;;;;;;;;;;5022757;28;20157;-70
2022/03/07 14:25:20;;;;;;;12.80;7.30;;;;;;;;;;5020964;28;20124;-70
2022/03/07 14:27:48;;;;;;;6.05;5.55;;;;;;;;;;5021385;28;20415;-74
2022/03/07 14:30:15;;;;;;;7.28;6.03;;;;;;;;;;5004258;28;20396;-72
2022/03/07 14:32:43;;;;;;;15.55;9.35;;;;;;;;;;5000909;28;20495;-73
2022/03/07 14:35:11;;;;;;;7.38;6.05;;;;;;;;;;4989011;28;20044;-74
2022/03/07 14:37:41;;;;;;;8.32;6.47;;;;;;;;;;5018737;28;20045;-74
2022/03/07 14:40:10;;;;;;;6.50;5.55;;;;;;;;;;4990492;28;20103;-75